createdAt,value
2022-08-22T00:00:27.533Z,12.48
2022-08-22T00:02:49.120Z,6.95
2022-08-22T00:03:04.654Z,9.07
2022-08-22T00:03:09.129Z,8.27
2022-08-22T00:03:10.645Z,7.13
2022-08-22T00:06:04.094Z,10.65
2022-08-22T00:08:49.431Z,10.20
2022-08-22T00:11:47.399Z,10.25
2022-08-22T00:14:49.423Z,8.52
2022-08-22T00:17:47.047Z,9.75
2022-08-22T00:20:28.056Z,9.80
2022-08-22T00:23:25.068Z,12.10
2022-08-22T00:25:56.343Z,11.30
2022-08-22T00:28:40.367Z,7.95
2022-08-22T00:31:22.354Z,8.88
2022-08-22T00:34:01.343Z,10.82
2022-08-22T00:36:34.360Z,9.80
2022-08-22T00:39:25.798Z,9.50
2022-08-22T00:42:08.245Z,12.25
2022-08-22T00:44:49.366Z,10.52
2022-08-22T00:47:45.353Z,11.40
2022-08-22T00:50:42.445Z,11.13
2022-08-22T00:53:28.281Z,9.80
2022-08-22T00:56:22.671Z,10.10
2022-08-22T00:59:26.934Z,7.68
2022-08-22T01:02:09.810Z,8.93
2022-08-22T01:04:51.229Z,8.90
2022-08-22T01:07:38.174Z,10.25
2022-08-22T01:10:14.621Z,9.82
2022-08-22T01:12:50.010Z,10.10
2022-08-22T01:15:24.650Z,8.25
2022-08-22T01:18:09.845Z,12.65
2022-08-22T01:20:57.834Z,12.48
2022-08-22T01:23:33.365Z,12.02
2022-08-22T01:26:19.500Z,10.00
2022-08-22T01:29:04.402Z,9.23
2022-08-22T01:32:06.427Z,7.10
2022-08-22T01:34:54.109Z,8.48
2022-08-22T01:37:59.912Z,9.57
2022-08-22T01:41:03.511Z,8.57
2022-08-22T01:43:59.810Z,10.27
2022-08-22T01:46:42.802Z,9.15
2022-08-22T01:49:23.699Z,11.20
2022-08-22T01:52:12.024Z,10.93
2022-08-22T01:55:00.743Z,11.48
2022-08-22T01:57:27.838Z,9.38
2022-08-22T01:59:59.190Z,10.02
2022-08-22T02:03:03.395Z,11.05
2022-08-22T02:05:37.360Z,9.57
2022-08-22T02:08:20.799Z,10.30
2022-08-22T02:10:59.694Z,9.20
2022-08-22T02:13:26.355Z,10.20
2022-08-22T02:16:14.774Z,11.73
2022-08-22T02:19:05.376Z,9.50
2022-08-22T02:21:58.735Z,9.80
2022-08-22T02:24:37.924Z,10.18
2022-08-22T02:27:07.479Z,10.38
2022-08-22T02:29:49.116Z,12.05
2022-08-22T02:32:28.809Z,8.55
2022-08-22T02:35:03.508Z,9.90
2022-08-22T02:37:35.580Z,12.82
2022-08-22T02:40:10.471Z,11.48
2022-08-22T02:42:47.091Z,8.18
2022-08-22T02:45:45.824Z,14.65
2022-08-22T02:48:19.642Z,10.43
2022-08-22T02:50:57.844Z,10.48
2022-08-22T02:53:37.908Z,9.05
2022-08-22T02:56:08.714Z,7.60
2022-08-22T02:58:51.702Z,9.63
2022-08-22T03:01:33.390Z,8.93
2022-08-22T03:04:30.647Z,11.75
2022-08-22T03:07:21.309Z,9.00
2022-08-22T03:09:56.766Z,10.73
2022-08-22T03:12:56.975Z,11.48
2022-08-22T03:15:31.139Z,8.55
2022-08-22T03:18:14.809Z,9.98
2022-08-22T03:20:54.116Z,9.93
2022-08-22T03:23:31.648Z,11.13
2022-08-22T03:26:16.915Z,9.50
2022-08-22T03:29:00.012Z,9.30
2022-08-22T03:31:28.974Z,11.20
2022-08-22T03:34:17.429Z,10.20
2022-08-22T03:37:10.323Z,9.85
2022-08-22T03:39:47.840Z,12.27
2022-08-22T03:42:46.658Z,10.70
2022-08-22T03:45:34.027Z,9.02
2022-08-22T03:48:27.953Z,13.40
2022-08-22T03:51:11.980Z,9.88
2022-08-22T03:54:05.479Z,13.07
2022-08-22T03:57:02.098Z,10.18
2022-08-22T03:59:34.817Z,12.05
2022-08-22T04:02:43.231Z,10.75
2022-08-22T04:05:25.389Z,10.80
2022-08-22T04:08:15.903Z,7.85
2022-08-22T04:10:48.204Z,11.15
2022-08-22T04:13:27.676Z,12.80
2022-08-22T04:16:31.487Z,7.93
2022-08-22T04:19:16.634Z,9.00
2022-08-22T04:22:17.029Z,10.77
2022-08-22T04:24:55.477Z,11.68
2022-08-22T04:27:55.805Z,10.95
2022-08-22T04:30:40.889Z,12.32
2022-08-22T04:33:22.193Z,12.13
2022-08-22T04:35:57.405Z,9.75
2022-08-22T04:38:47.796Z,11.77
2022-08-22T04:41:25.420Z,9.73
2022-08-22T04:44:00.612Z,9.65
2022-08-22T04:47:04.289Z,12.60
2022-08-22T04:49:52.634Z,14.15
2022-08-22T04:52:41.052Z,11.10
2022-08-22T04:55:33.079Z,12.55
2022-08-22T04:58:38.572Z,11.85
2022-08-22T05:01:24.082Z,9.48
2022-08-22T05:03:58.306Z,10.75
2022-08-22T05:06:29.556Z,11.82
2022-08-22T05:09:01.446Z,10.18
2022-08-22T05:11:29.914Z,11.00
2022-08-22T05:14:26.736Z,15.63
2022-08-22T05:16:56.415Z,10.10
2022-08-22T05:19:32.214Z,9.48
2022-08-22T05:21:59.550Z,13.23
2022-08-22T05:24:33.408Z,11.57
2022-08-22T05:27:11.217Z,12.00
2022-08-22T05:29:41.289Z,11.07
2022-08-22T05:32:16.153Z,13.25
2022-08-22T05:34:45.905Z,12.82
2022-08-22T05:37:17.747Z,10.00
2022-08-22T05:39:49.246Z,10.82
2022-08-22T05:42:23.702Z,11.52
2022-08-22T05:44:50.384Z,11.45
2022-08-22T05:47:38.406Z,10.73
2022-08-22T05:50:10.867Z,10.38
2022-08-22T05:53:11.078Z,14.15
2022-08-22T05:55:49.900Z,11.50
2022-08-22T05:58:41.573Z,14.65
2022-08-22T06:01:20.605Z,12.93
2022-08-22T06:03:57.222Z,12.57
2022-08-22T06:06:26.925Z,12.48
2022-08-22T06:09:06.745Z,14.00
2022-08-22T06:11:45.331Z,11.65
2022-08-22T06:14:47.771Z,11.15
2022-08-22T06:17:18.124Z,11.60
2022-08-22T06:19:50.691Z,10.20
2022-08-22T06:22:23.614Z,11.77
2022-08-22T06:24:54.442Z,13.35
2022-08-22T06:27:24.244Z,11.95
2022-08-22T06:29:58.603Z,13.95
2022-08-22T06:32:44.361Z,11.27
2022-08-22T06:35:25.752Z,12.48
2022-08-22T06:37:57.674Z,14.05
2022-08-22T06:40:26.834Z,12.35
2022-08-22T06:42:54.328Z,12.77
2022-08-22T06:45:32.770Z,12.68
2022-08-22T06:48:05.580Z,10.75
2022-08-22T06:50:39.756Z,14.70
2022-08-22T06:53:31.584Z,11.90
2022-08-22T06:56:06.102Z,13.38
2022-08-22T06:58:40.367Z,11.60
2022-08-22T07:01:12.682Z,13.85
2022-08-22T07:04:03.312Z,11.90
2022-08-22T07:06:36.437Z,15.35
2022-08-22T07:09:05.683Z,14.20
2022-08-22T07:11:43.355Z,12.88
2022-08-22T07:14:15.368Z,14.70
2022-08-22T07:16:55.181Z,11.68
2022-08-22T07:19:39.413Z,12.30
2022-08-22T07:22:15.665Z,13.82
2022-08-22T07:24:52.969Z,13.13
2022-08-22T07:27:31.747Z,14.10
2022-08-22T07:30:10.248Z,13.70
2022-08-22T07:32:52.502Z,13.25
2022-08-22T07:35:28.921Z,15.43
2022-08-22T07:37:55.839Z,12.70
2022-08-22T07:40:25.380Z,12.85
2022-08-22T07:43:13.411Z,12.80
2022-08-22T07:45:57.337Z,13.50
2022-08-22T07:48:26.981Z,11.90
2022-08-22T07:51:01.247Z,13.77
2022-08-22T07:53:57.963Z,12.07
2022-08-22T07:56:31.539Z,12.05
2022-08-22T07:59:17.517Z,12.25
2022-08-22T08:01:51.274Z,11.35
2022-08-22T08:04:23.242Z,12.50
2022-08-22T08:06:53.321Z,12.75
2022-08-22T08:09:21.101Z,11.43
2022-08-22T08:11:51.083Z,14.18
2022-08-22T08:14:20.513Z,9.75
2022-08-22T08:17:09.833Z,11.20
2022-08-22T08:19:40.803Z,11.27
2022-08-22T08:22:07.903Z,11.02
2022-08-22T08:24:42.150Z,11.27
2022-08-22T08:27:38.601Z,10.02
2022-08-22T08:30:13.428Z,11.25
2022-08-22T08:32:46.032Z,10.10
2022-08-22T08:35:21.199Z,13.75
2022-08-22T08:37:52.325Z,11.55
2022-08-22T08:41:03.748Z,11.40
2022-08-22T08:44:00.911Z,11.10
2022-08-22T08:46:39.589Z,11.63
2022-08-22T08:49:35.636Z,11.52
2022-08-22T08:52:17.769Z,10.82
2022-08-22T08:55:22.068Z,13.35
2022-08-22T09:00:51.181Z,12.60
2022-08-22T09:03:31.155Z,11.98
2022-08-22T09:06:42.571Z,10.25
2022-08-22T09:09:46.817Z,10.57
2022-08-22T09:12:56.390Z,11.32
2022-08-22T09:15:42.812Z,10.40
2022-08-22T09:18:22.728Z,12.02
2022-08-22T09:21:11.196Z,11.48
2022-08-22T09:24:07.262Z,14.10
2022-08-22T09:26:58.026Z,11.63
2022-08-22T09:29:55.179Z,11.00
2022-08-22T09:32:35.671Z,10.00
2022-08-22T09:35:11.483Z,9.77
2022-08-22T09:38:01.091Z,9.77
2022-08-22T09:40:47.944Z,11.63
2022-08-22T09:43:33.961Z,10.63
2022-08-22T09:46:15.395Z,10.30
2022-08-22T09:49:16.454Z,10.23
2022-08-22T09:52:15.112Z,10.23
2022-08-22T09:54:58.779Z,10.25
2022-08-22T09:57:38.921Z,8.85
2022-08-22T10:00:05.342Z,7.55
2022-08-22T10:02:43.509Z,11.80
2022-08-22T10:05:35.292Z,11.27
2022-08-22T10:08:11.408Z,9.68
2022-08-22T10:11:00.473Z,9.15
2022-08-22T10:13:46.686Z,10.60
2022-08-22T10:16:41.892Z,10.77
2022-08-22T10:19:42.530Z,8.82
2022-08-22T10:22:44.537Z,11.15
2022-08-22T10:25:42.154Z,8.93
2022-08-22T10:28:24.131Z,12.82
2022-08-22T10:30:55.124Z,9.00
2022-08-22T10:33:33.781Z,8.27
2022-08-22T10:36:22.095Z,12.32
2022-08-22T10:38:55.143Z,10.38
2022-08-22T10:41:38.565Z,10.55
2022-08-22T10:44:17.401Z,9.18
2022-08-22T10:46:57.142Z,10.25
2022-08-22T10:52:15.319Z,8.90
2022-08-22T10:54:48.688Z,10.13
2022-08-22T10:57:36.754Z,9.68
2022-08-22T11:00:12.669Z,7.03
2022-08-22T11:03:16.670Z,10.65
2022-08-22T11:05:50.788Z,10.93
2022-08-22T11:08:23.547Z,8.02
2022-08-22T11:11:19.873Z,10.10
2022-08-22T11:14:12.624Z,8.40
2022-08-22T11:17:23.571Z,8.48
2022-08-22T11:20:14.401Z,8.23
2022-08-22T11:22:40.933Z,6.28
2022-08-22T11:25:15.923Z,9.48
2022-08-22T11:28:05.453Z,9.60
2022-08-22T11:30:47.972Z,8.82
2022-08-22T11:33:47.350Z,7.15
2022-08-22T11:36:39.290Z,7.18
2022-08-22T11:39:18.619Z,8.15
2022-08-22T11:42:06.722Z,8.38
2022-08-22T11:44:50.282Z,6.78
2022-08-22T11:47:26.739Z,8.75
2022-08-22T11:50:01.102Z,6.75
2022-08-22T11:52:51.863Z,7.95
2022-08-22T11:55:23.473Z,7.18
2022-08-22T11:58:01.274Z,7.82
2022-08-22T12:00:39.698Z,7.68
2022-08-22T12:03:33.340Z,9.25
2022-08-22T12:06:31.738Z,7.30
2022-08-22T12:09:33.822Z,6.18
2022-08-22T12:12:08.969Z,6.68
2022-08-22T12:14:54.682Z,8.68
2022-08-22T12:17:55.313Z,7.15
2022-08-22T12:21:01.490Z,7.60
2022-08-22T12:23:48.720Z,8.13
2022-08-22T12:26:45.301Z,7.85
2022-08-22T12:29:39.916Z,8.38
2022-08-22T12:32:39.687Z,8.40
2022-08-22T12:35:19.957Z,9.25
2022-08-22T12:40:48.521Z,8.80
2022-08-22T12:43:27.759Z,8.18
2022-08-22T12:46:23.879Z,7.20
2022-08-22T12:49:09.037Z,6.82
2022-08-22T12:52:04.466Z,8.95
2022-08-22T12:54:34.055Z,7.25
2022-08-22T12:57:15.213Z,7.68
2022-08-22T12:59:55.831Z,8.00
2022-08-22T13:02:32.514Z,8.02
2022-08-22T13:05:22.744Z,10.95
2022-08-22T13:08:04.552Z,6.60
2022-08-22T13:10:58.440Z,6.75
2022-08-22T13:13:36.972Z,8.73
2022-08-22T13:16:15.885Z,8.40
2022-08-22T13:18:53.485Z,10.00
2022-08-22T13:21:26.229Z,6.68
2022-08-22T13:24:05.133Z,7.20
2022-08-22T13:26:40.785Z,6.85
2022-08-22T13:29:29.249Z,8.23
2022-08-22T13:32:07.308Z,5.88
2022-08-22T13:37:12.199Z,8.13
2022-08-22T13:39:43.508Z,9.15
2022-08-22T13:42:27.773Z,6.80
2022-08-22T13:45:02.383Z,6.60
2022-08-22T13:47:32.425Z,7.13
2022-08-22T13:50:23.075Z,6.40
2022-08-22T13:52:58.445Z,8.00
2022-08-22T13:55:55.398Z,6.53
2022-08-22T13:58:41.767Z,6.72
2022-08-22T14:01:43.912Z,8.55
2022-08-22T14:04:35.832Z,6.82
2022-08-22T14:07:03.670Z,5.72
2022-08-22T14:09:53.048Z,7.60
2022-08-22T14:12:30.229Z,6.95
2022-08-22T14:15:04.176Z,8.15
2022-08-22T14:17:38.513Z,6.65
2022-08-22T14:20:32.003Z,7.20
2022-08-22T14:23:04.942Z,7.50
2022-08-22T14:25:37.141Z,9.85
2022-08-22T14:28:21.638Z,8.25
2022-08-22T14:31:01.909Z,7.95
2022-08-22T14:33:37.033Z,7.20
2022-08-22T14:36:23.601Z,8.00
2022-08-22T14:38:59.439Z,7.90
2022-08-22T14:41:52.941Z,7.35
2022-08-22T14:44:30.388Z,10.32
2022-08-22T14:47:04.246Z,8.15
2022-08-22T14:49:33.859Z,7.78
2022-08-22T14:52:19.447Z,7.03
2022-08-22T14:54:46.742Z,7.45
2022-08-22T14:57:19.835Z,8.82
2022-08-22T14:59:50.612Z,7.65
2022-08-22T15:02:25.033Z,6.55
2022-08-22T15:04:54.917Z,9.18
2022-08-22T15:07:54.139Z,5.93
2022-08-22T15:10:25.754Z,6.43
2022-08-22T15:12:56.885Z,7.53
2022-08-22T15:15:30.770Z,6.50
2022-08-22T15:17:57.576Z,8.48
2022-08-22T15:20:36.174Z,6.40
2022-08-22T15:23:18.697Z,7.22
2022-08-22T15:25:56.056Z,9.70
2022-08-22T15:28:24.499Z,6.90
2022-08-22T15:30:54.191Z,6.53
2022-08-22T15:33:32.371Z,9.30
2022-08-22T15:36:15.889Z,7.35
2022-08-22T15:39:12.179Z,7.10
2022-08-22T15:41:46.295Z,8.07
2022-08-22T15:44:30.947Z,7.60
2022-08-22T15:47:10.610Z,7.30
2022-08-22T15:49:52.878Z,8.65
2022-08-22T15:52:25.989Z,8.20
2022-08-22T15:54:57.180Z,8.43
2022-08-22T15:57:40.116Z,9.98
2022-08-22T16:00:34.121Z,6.50
2022-08-22T16:03:05.993Z,8.27
2022-08-22T16:05:54.676Z,6.85
2022-08-22T16:08:33.114Z,6.65
2022-08-22T16:11:02.875Z,7.00
2022-08-22T16:13:33.568Z,7.80
2022-08-22T16:16:02.784Z,6.40
2022-08-22T16:18:36.962Z,7.38
2022-08-22T16:21:06.065Z,7.30
2022-08-22T16:23:51.122Z,8.15
2022-08-22T16:26:36.751Z,7.65
2022-08-22T16:29:17.527Z,6.78
2022-08-22T16:31:44.629Z,8.25
2022-08-22T16:34:17.735Z,8.10
2022-08-22T16:37:06.351Z,6.03
2022-08-22T16:39:38.603Z,8.52
2022-08-22T16:42:39.463Z,10.90
2022-08-22T16:45:11.970Z,8.65
2022-08-22T16:47:52.784Z,7.25
2022-08-22T16:50:38.290Z,6.53
2022-08-22T16:53:10.671Z,8.27
2022-08-22T16:55:39.465Z,10.38
2022-08-22T16:58:09.255Z,7.00
2022-08-22T17:01:04.282Z,6.95
2022-08-22T17:03:45.212Z,6.38
2022-08-22T17:06:34.982Z,6.80
2022-08-22T17:09:32.955Z,6.55
2022-08-22T17:12:37.029Z,7.78
2022-08-22T17:15:23.810Z,7.88
2022-08-22T17:18:18.260Z,8.20
2022-08-22T17:21:06.716Z,8.10
2022-08-22T17:23:42.391Z,6.95
2022-08-22T17:26:26.112Z,8.65
2022-08-22T17:29:01.703Z,7.18
2022-08-22T17:31:43.175Z,10.40
2022-08-22T17:34:12.550Z,6.82
2022-08-22T17:36:54.354Z,7.55
2022-08-22T17:39:51.796Z,9.45
2022-08-22T17:42:38.874Z,6.90
2022-08-22T17:45:38.264Z,5.07
2022-08-22T17:48:24.739Z,6.78
2022-08-22T17:50:57.125Z,8.15
2022-08-22T17:53:35.198Z,6.43
2022-08-22T17:56:22.809Z,6.07
2022-08-22T17:59:20.809Z,6.18
2022-08-22T18:01:57.072Z,10.05
2022-08-22T18:04:34.995Z,7.53
2022-08-22T18:07:25.146Z,9.20
2022-08-22T18:10:10.891Z,6.22
2022-08-22T18:12:49.635Z,6.55
2022-08-22T18:15:25.370Z,6.22
2022-08-22T18:18:38.966Z,9.55
2022-08-22T18:21:32.010Z,9.40
2022-08-22T18:24:12.998Z,7.32
2022-08-22T18:26:42.553Z,9.20
2022-08-22T18:29:17.337Z,7.38
2022-08-22T18:32:02.717Z,7.45
2022-08-22T18:34:52.304Z,8.85
2022-08-22T18:39:56.310Z,10.13
2022-08-22T18:42:36.844Z,7.18
2022-08-22T18:45:03.943Z,9.55
2022-08-22T18:47:33.149Z,8.95
2022-08-22T18:50:24.404Z,7.88
2022-08-22T18:52:53.421Z,7.10
2022-08-22T18:55:43.168Z,7.28
2022-08-22T18:58:37.993Z,9.98
2022-08-22T19:01:31.068Z,7.80
2022-08-22T19:04:08.445Z,7.85
2022-08-22T19:07:02.692Z,8.18
2022-08-22T19:10:06.858Z,8.07
2022-08-22T19:12:49.243Z,8.45
2022-08-22T19:15:22.806Z,11.32
2022-08-22T19:18:07.909Z,13.35
2022-08-22T19:20:57.092Z,8.50
2022-08-22T19:23:32.683Z,8.43
2022-08-22T19:26:24.497Z,14.02
2022-08-22T19:28:53.910Z,15.45
2022-08-22T19:31:41.845Z,14.32
2022-08-22T19:34:25.112Z,12.75
2022-08-22T19:37:31.778Z,9.75
2022-08-22T19:40:06.818Z,17.50
2022-08-22T19:42:36.982Z,18.23
2022-08-22T19:45:26.474Z,11.43
2022-08-22T19:47:57.989Z,11.85
2022-08-22T19:50:30.997Z,11.60
2022-08-22T19:53:06.553Z,11.48
2022-08-22T19:55:39.123Z,14.65
2022-08-22T19:58:33.028Z,9.25
2022-08-22T20:01:12.784Z,11.90
2022-08-22T20:03:50.411Z,9.90
2022-08-22T20:06:44.105Z,10.77
2022-08-22T20:09:22.714Z,9.95
2022-08-22T20:12:00.151Z,11.05
2022-08-22T20:14:30.749Z,8.45
2022-08-22T20:16:59.735Z,9.45
2022-08-22T20:22:58.357Z,15.30
2022-08-22T20:25:43.679Z,9.00
2022-08-22T20:28:29.598Z,11.02
2022-08-22T20:31:02.280Z,9.80
2022-08-22T20:33:35.989Z,11.00
2022-08-22T20:36:06.460Z,9.73
2022-08-22T20:38:55.944Z,12.73
2022-08-22T20:41:29.359Z,10.43
2022-08-22T20:44:02.416Z,13.32
2022-08-22T20:46:43.654Z,15.05
2022-08-22T20:49:17.694Z,13.38
2022-08-22T20:52:10.936Z,11.07
2022-08-22T20:54:40.470Z,12.57
2022-08-22T20:57:19.249Z,11.05
2022-08-22T20:59:54.822Z,10.55
2022-08-22T21:02:30.186Z,12.52
2022-08-22T21:05:03.202Z,14.27
2022-08-22T21:07:36.765Z,10.98
2022-08-22T21:10:39.853Z,10.40
2022-08-22T21:13:08.557Z,10.77
2022-08-22T21:15:47.492Z,10.27
2022-08-22T21:18:24.680Z,11.40
2022-08-22T21:20:51.996Z,10.63
2022-08-22T21:23:19.662Z,12.35
2022-08-22T21:25:54.938Z,12.50
2022-08-22T21:28:30.993Z,11.57
2022-08-22T21:30:58.720Z,10.73
2022-08-22T21:33:25.714Z,10.93
2022-08-22T21:35:59.027Z,10.57
2022-08-22T21:38:26.453Z,12.45
2022-08-22T21:41:00.044Z,11.77
2022-08-22T21:43:32.690Z,13.40
2022-08-22T21:45:59.659Z,10.38
2022-08-22T21:48:59.961Z,11.07
2022-08-22T21:51:43.508Z,13.13
2022-08-22T21:54:25.092Z,10.77
2022-08-22T21:56:58.408Z,10.10
2022-08-22T21:59:50.712Z,11.68
2022-08-22T22:02:28.541Z,11.00
2022-08-22T22:04:55.945Z,13.48
2022-08-22T22:07:23.746Z,11.27
2022-08-22T22:09:54.395Z,11.10
2022-08-22T22:12:23.241Z,9.75
2022-08-22T22:14:50.109Z,10.00
2022-08-22T22:17:18.411Z,11.52
2022-08-22T22:19:45.544Z,12.70
2022-08-22T22:22:11.989Z,13.48
2022-08-22T22:24:38.569Z,10.25
2022-08-22T22:27:05.932Z,14.30
2022-08-22T22:29:34.023Z,13.00
2022-08-22T22:32:00.516Z,11.98
2022-08-22T22:34:27.195Z,11.10
2022-08-22T22:36:54.632Z,10.93
2022-08-22T22:39:21.254Z,12.05
2022-08-22T22:41:48.924Z,14.23
2022-08-22T22:44:15.408Z,12.75
2022-08-22T22:46:41.974Z,11.35
2022-08-22T22:49:11.634Z,15.00
2022-08-22T22:51:38.168Z,10.57
2022-08-22T22:54:05.004Z,12.80
2022-08-22T22:56:31.528Z,11.02
2022-08-22T22:59:00.859Z,10.90
2022-08-22T23:02:01.514Z,11.70
2022-08-22T23:04:28.680Z,10.57
2022-08-22T23:06:55.263Z,12.88
2022-08-22T23:09:21.810Z,11.68
2022-08-22T23:11:54.741Z,10.38
2022-08-22T23:14:21.235Z,10.23
2022-08-22T23:16:47.775Z,12.48
2022-08-22T23:19:16.771Z,10.77
2022-08-22T23:21:44.954Z,11.52
2022-08-22T23:24:12.641Z,11.05
2022-08-22T23:26:39.703Z,12.48
2022-08-22T23:29:06.708Z,10.20
2022-08-22T23:31:42.664Z,11.40
2022-08-22T23:34:12.023Z,10.05
2022-08-22T23:36:40.339Z,15.70
2022-08-22T23:39:08.164Z,15.30
2022-08-22T23:41:36.570Z,11.98
2022-08-22T23:44:05.739Z,12.50
2022-08-22T23:46:32.414Z,14.18
2022-08-22T23:49:00.510Z,15.10
2022-08-22T23:51:27.467Z,13.82
2022-08-22T23:53:56.667Z,16.45
2022-08-22T23:56:29.652Z,14.35
2022-08-22T23:58:57.240Z,14.55
